Time;durP1;ratioP1;P1;durP2;ratioP2;P2;SDS_P1;SDS_P2;PMS_P1;PMS_P2;Temp;Humidity;BMP_temperature;BMP_pressure;BME280_temperature;BME280_humidity;BME280_pressure;Samples;Min_cycle;Max_cycle;Signal;HPM_P1;HPM_P2
2020/12/05 00:03:45;;;;;;;16.95;9.43;;;;;;;6.18;68.57;98099.28;8678137;33;20388;-74
2020/12/05 00:08:49;;;;;;;19.15;9.10;;;;;;;6.16;68.18;98115.28;8673459;33;20208;-74
2020/12/05 00:13:51;;;;;;;16.00;8.63;;;;;;;6.19;67.96;98128.28;8667415;33;20190;-74
2020/12/05 00:18:54;;;;;;;18.60;8.43;;;;;;;6.18;68.12;98131.09;8668649;33;20437;-74
2020/12/05 00:23:59;;;;;;;16.77;8.82;;;;;;;6.12;68.58;98134.25;8663434;33;20209;-74
2020/12/05 00:29:01;;;;;;;17.15;9.07;;;;;;;6.14;68.09;98143.75;8663598;33;20507;-74
2020/12/05 00:34:03;;;;;;;18.60;8.68;;;;;;;6.18;68.24;98139.88;8664748;33;20153;-74
2020/12/05 00:39:07;;;;;;;17.77;9.00;;;;;;;6.12;68.67;98121.84;8663151;33;20451;-74
2020/12/05 00:44:09;;;;;;;18.70;9.60;;;;;;;6.09;68.62;98143.31;8662611;33;20437;-74
2020/12/05 00:49:11;;;;;;;16.98;8.38;;;;;;;6.12;68.46;98140.41;8661333;33;20332;-74
2020/12/05 00:54:15;;;;;;;19.15;9.10;;;;;;;6.17;68.71;98148.81;8635119;33;20432;-74
2020/12/05 00:59:18;;;;;;;15.48;8.68;;;;;;;6.11;68.74;98146.66;8644131;33;20426;-74
2020/12/05 01:04:21;;;;;;;23.83;9.68;;;;;;;6.17;68.63;98147.94;8656054;33;20122;-74
2020/12/05 01:09:24;;;;;;;18.45;8.82;;;;;;;6.19;69.13;98144.19;8652827;33;20396;-74
2020/12/05 01:14:26;;;;;;;20.40;9.68;;;;;;;6.19;69.01;98146.84;8655098;33;20229;-74
2020/12/05 01:19:29;;;;;;;19.60;9.98;;;;;;;6.20;68.97;98143.25;8653904;33;20697;-74
2020/12/05 01:24:33;;;;;;;19.10;9.55;;;;;;;6.21;68.63;98149.38;8650037;33;20156;-74
2020/12/05 01:29:36;;;;;;;16.73;9.32;;;;;;;6.15;68.89;98153.38;8649315;33;21216;-74
2020/12/05 01:34:38;;;;;;;14.85;9.00;;;;;;;6.12;68.00;98150.16;8648355;33;20865;-74
2020/12/05 01:39:41;;;;;;;16.02;8.30;;;;;;;6.13;67.94;98157.97;8647274;33;20142;-74
2020/12/05 01:44:43;;;;;;;16.27;9.52;;;;;;;6.15;67.73;98153.38;8622235;33;20190;-74
2020/12/05 01:49:46;;;;;;;17.58;9.45;;;;;;;6.17;67.73;98154.09;8646321;33;20478;-74
2020/12/05 01:54:50;;;;;;;19.27;9.23;;;;;;;6.16;67.68;98155.06;8621791;33;20494;-74
2020/12/05 01:59:53;;;;;;;16.27;9.02;;;;;;;6.16;67.63;98155.06;8647306;33;20496;-74
2020/12/05 02:05:03;;;;;;;20.33;10.07;;;;;;;6.20;67.35;98142.41;8623136;33;20409;-74
2020/12/05 02:10:10;;;;;;;18.42;9.07;;;;;;;6.19;67.49;98128.28;8647358;33;20431;-74
2020/12/05 02:15:20;;;;;;;20.05;9.98;;;;;;;6.23;67.73;98137.66;8644141;33;20195;-74
2020/12/05 02:20:22;;;;;;;17.52;9.15;;;;;;;6.20;67.92;98129.97;8628831;33;20134;-74
2020/12/05 02:25:27;;;;;;;16.80;9.32;;;;;;;6.24;67.35;98136.69;8607977;33;20553;-74
2020/12/05 02:30:32;;;;;;;17.48;9.52;;;;;;;6.23;67.50;98135.03;8639360;33;20954;-74
2020/12/05 02:35:35;;;;;;;16.80;9.75;;;;;;;6.27;67.70;98134.75;8636175;33;21362;-74
2020/12/05 02:40:39;;;;;;;21.08;9.10;;;;;;;6.29;66.81;98138.97;8645017;33;20428;-74
2020/12/05 02:45:41;;;;;;;13.98;7.93;;;;;;;6.19;67.32;98132.75;8647885;33;20507;-75
2020/12/05 02:50:43;;;;;;;19.02;9.27;;;;;;;6.08;68.00;98138.13;8614273;33;20230;-74
2020/12/05 02:55:47;;;;;;;15.75;8.80;;;;;;;6.13;67.88;98150.00;8631689;33;20171;-75
2020/12/05 03:00:49;;;;;;;13.82;7.57;;;;;;;6.03;68.73;98154.41;8636083;33;20433;-74
2020/12/05 03:05:51;;;;;;;18.55;9.25;;;;;;;6.08;68.80;98152.22;8647205;33;20405;-75
2020/12/05 03:10:54;;;;;;;14.38;8.93;;;;;;;6.08;68.24;98162.81;8648443;33;20143;-74
2020/12/05 03:15:57;;;;;;;15.73;8.93;;;;;;;6.11;67.84;98174.97;8651514;33;20433;-74
2020/12/05 03:20:59;;;;;;;20.05;8.68;;;;;;;6.07;68.71;98168.25;8651937;33;20895;-74
2020/12/05 03:26:03;;;;;;;22.25;10.27;;;;;;;6.09;70.07;98168.94;8631817;33;20412;-74
2020/12/05 03:31:06;;;;;;;17.17;9.10;;;;;;;6.04;71.99;98174.66;8658978;33;20568;-74
2020/12/05 03:36:08;;;;;;;15.65;8.68;;;;;;;5.94;74.10;98169.25;8659497;33;20407;-74
2020/12/05 03:41:11;;;;;;;14.63;9.15;;;;;;;5.80;75.63;98169.53;8659291;33;20199;-74
2020/12/05 03:46:14;;;;;;;19.55;10.52;;;;;;;5.62;76.79;98179.81;8653643;33;20611;-74
2020/12/05 03:51:16;;;;;;;18.02;9.85;;;;;;;5.44;78.51;98184.00;8651817;33;20869;-74
2020/12/05 03:56:20;;;;;;;19.88;10.93;;;;;;;5.15;80.01;98204.84;8626163;33;20222;-74
2020/12/05 04:01:22;;;;;;;23.05;11.18;;;;;;;4.88;81.25;98216.63;8627921;33;20414;-75
2020/12/05 04:06:24;;;;;;;21.05;10.57;;;;;;;4.69;82.33;98222.53;8626473;33;20144;-75
2020/12/05 04:11:28;;;;;;;21.77;9.07;;;;;;;4.63;83.37;98233.56;8651382;33;20403;-76
2020/12/05 04:16:31;;;;;;;18.58;10.65;;;;;;;4.50;83.88;98216.94;8631193;33;20165;-77
2020/12/05 04:21:34;;;;;;;23.63;11.83;;;;;;;4.55;84.69;98222.72;8634813;33;20504;-77
2020/12/05 04:26:37;;;;;;;23.85;12.10;;;;;;;4.52;84.97;98225.59;8670065;33;20237;-76
2020/12/05 04:31:39;;;;;;;23.67;11.23;;;;;;;4.44;85.34;98221.75;8666704;33;20192;-77
2020/12/05 04:36:41;;;;;;;20.05;11.00;;;;;;;4.54;85.85;98215.75;8659462;33;20237;-76
2020/12/05 04:41:45;;;;;;;25.03;11.07;;;;;;;4.68;86.07;98215.53;8659506;33;20460;-76
2020/12/05 04:46:47;;;;;;;20.30;10.68;;;;;;;4.73;86.21;98225.78;8660116;33;20412;-76
2020/12/05 04:51:53;;;;;;;25.25;11.45;;;;;;;4.67;86.40;98221.78;8657448;33;22211;-75
2020/12/05 04:56:56;;;;;;;26.42;11.85;;;;;;;4.78;86.64;98207.75;8656357;33;20420;-75
2020/12/05 05:02:01;;;;;;;25.40;12.48;;;;;;;4.70;86.20;98205.69;8656173;33;20185;-75
2020/12/05 05:07:04;;;;;;;26.23;12.00;;;;;;;4.77;86.42;98214.84;8657720;33;20158;-74
2020/12/05 05:12:07;;;;;;;23.98;11.35;;;;;;;4.80;86.52;98238.41;8659479;33;20570;-74
2020/12/05 05:17:09;;;;;;;27.10;11.80;;;;;;;4.73;86.68;98239.84;8661904;33;20230;-74
2020/12/05 05:22:12;;;;;;;27.45;12.63;;;;;;;4.69;86.91;98243.69;8661358;33;21957;-74
2020/12/05 05:27:15;;;;;;;25.10;11.87;;;;;;;4.63;86.88;98252.91;8656333;33;20409;-74
2020/12/05 05:32:25;;;;;;;26.58;12.95;;;;;;;4.44;86.25;98253.50;8653495;33;20400;-74
2020/12/05 05:37:27;;;;;;;26.30;12.47;;;;;;;4.42;86.84;98265.97;8631219;33;20139;-74
2020/12/05 05:42:33;;;;;;;21.25;12.30;;;;;;;4.33;86.43;98268.44;8654719;33;20403;-74
2020/12/05 05:47:36;;;;;;;26.80;12.43;;;;;;;4.31;87.10;98278.31;8653470;33;20176;-74
2020/12/05 05:52:38;;;;;;;24.63;10.87;;;;;;;4.28;86.83;98294.38;8655478;33;20557;-75
2020/12/05 05:57:42;;;;;;;25.00;11.87;;;;;;;4.21;86.82;98284.28;8656551;33;20182;-75
2020/12/05 06:02:51;;;;;;;25.97;11.30;;;;;;;4.26;86.71;98297.16;8657578;33;20142;-76
2020/12/05 06:07:55;;;;;;;27.73;13.37;;;;;;;4.24;87.01;98284.03;8631861;33;20209;-75
2020/12/05 06:12:58;;;;;;;27.23;13.17;;;;;;;4.24;87.12;98293.78;8656272;33;20502;-76
2020/12/05 06:18:05;;;;;;;28.37;13.87;;;;;;;4.31;87.34;98280.97;8656820;33;20535;-75
2020/12/05 06:23:13;;;;;;;33.23;13.37;;;;;;;4.34;87.20;98278.91;8657842;33;20149;-75
2020/12/05 06:28:17;;;;;;;27.33;12.00;;;;;;;4.32;87.26;98294.03;8629357;33;20178;-75
2020/12/05 06:33:41;;;;;;;31.60;13.73;;;;;;;4.31;87.50;98305.59;8653446;33;20518;-76
2020/12/05 06:38:43;;;;;;;27.40;13.93;;;;;;;4.39;87.29;98353.44;8654351;33;20406;-75
2020/12/05 06:44:12;;;;;;;26.67;12.73;;;;;;;4.39;87.53;98402.84;8651174;33;20404;-75
2020/12/05 06:49:49;;;;;;;31.05;14.02;;;;;;;4.27;87.43;98432.78;8631294;33;20493;-76
2020/12/05 06:54:52;;;;;;;31.80;12.83;;;;;;;4.34;87.16;98439.34;8654626;33;20212;-76
2020/12/05 07:00:25;;;;;;;34.00;13.97;;;;;;;4.37;87.54;98437.31;8652855;33;20447;-76
2020/12/05 07:05:32;;;;;;;30.58;13.48;;;;;;;4.42;87.34;98439.63;8655141;33;20455;-76
2020/12/05 07:10:52;;;;;;;29.08;13.57;;;;;;;4.39;87.38;98429.28;8656292;33;20458;-76
2020/12/05 07:16:18;;;;;;;28.88;13.02;;;;;;;4.48;88.05;98425.97;8661554;33;20183;-77
2020/12/05 07:21:22;;;;;;;26.10;12.75;;;;;;;4.45;87.46;98432.31;8640142;33;20416;-78
2020/12/05 07:26:25;;;;;;;28.42;13.40;;;;;;;4.49;87.56;98427.63;8667156;33;20420;-78
2020/12/05 07:31:30;;;;;;;29.67;12.23;;;;;;;4.54;87.21;98446.66;8642418;33;20190;-78
2020/12/05 07:36:38;;;;;;;31.60;12.98;;;;;;;4.61;87.64;98449.72;8665458;33;20135;-77
2020/12/05 07:41:40;;;;;;;31.13;13.52;;;;;;;4.66;87.53;98460.78;8660386;33;20412;-76
2020/12/05 07:46:43;;;;;;;24.83;11.80;;;;;;;4.73;87.86;98485.84;8660205;33;20151;-77
2020/12/05 07:51:50;;;;;;;22.13;9.85;;;;;;;4.88;87.92;98502.38;8663390;33;20409;-76
2020/12/05 07:56:52;;;;;;;21.15;11.63;;;;;;;4.86;87.57;98515.72;8664065;33;20139;-76
2020/12/05 08:02:13;;;;;;;25.80;10.73;;;;;;;4.75;87.91;98542.13;8659660;33;20211;-76
2020/12/05 08:07:37;;;;;;;22.60;11.20;;;;;;;4.83;87.99;98563.59;8660668;33;20150;-76
2020/12/05 08:13:19;;;;;;;27.75;12.60;;;;;;;4.86;87.99;98571.28;8651320;33;20154;-76
2020/12/05 08:18:26;;;;;;;24.80;11.15;;;;;;;5.09;87.93;98577.56;8660999;33;20417;-76
2020/12/05 08:23:30;;;;;;;25.92;11.32;;;;;;;5.25;87.71;98593.16;8679664;33;20233;-76
2020/12/05 08:28:38;;;;;;;22.63;11.25;;;;;;;5.34;87.79;98605.72;8666084;33;20853;-75
2020/12/05 08:33:45;;;;;;;21.02;10.50;;;;;;;5.46;88.17;98601.34;8634753;33;20462;-75
2020/12/05 08:38:48;;;;;;;24.50;11.02;;;;;;;5.63;88.30;98612.47;8658971;33;20527;-75
2020/12/05 08:43:51;;;;;;;22.35;10.50;;;;;;;5.64;87.98;98612.34;8633178;33;20138;-75
2020/12/05 08:48:54;;;;;;;22.80;10.73;;;;;;;5.72;88.00;98612.63;8660688;33;20186;-75
2020/12/05 08:54:06;;;;;;;17.85;9.55;;;;;;;5.91;87.94;98616.53;8662388;33;20871;-75
2020/12/05 08:59:08;;;;;;;24.50;10.88;;;;;;;5.98;88.02;98623.94;8661942;33;20872;-75
2020/12/05 09:04:26;;;;;;;22.25;10.77;;;;;;;6.10;88.11;98655.78;8633298;33;20544;-75
2020/12/05 09:09:32;;;;;;;25.95;11.30;;;;;;;6.06;87.71;98667.56;8679824;32;20182;-74
2020/12/05 09:14:36;;;;;;;18.58;11.10;;;;;;;5.99;87.84;98683.94;8717635;32;20457;-74
2020/12/05 09:19:39;;;;;;;21.30;10.27;;;;;;;6.21;87.64;98679.69;8718311;32;20410;-74
2020/12/05 09:24:42;;;;;;;21.15;8.73;;;;;;;6.08;87.32;98676.25;8706488;32;20173;-74
2020/12/05 09:29:45;;;;;;;18.58;9.38;;;;;;;6.11;87.55;98674.22;8668555;33;20426;-74
2020/12/05 09:34:48;;;;;;;13.80;7.72;;;;;;;6.39;87.42;98670.31;8669830;32;20602;-74
2020/12/05 09:39:50;;;;;;;20.10;9.15;;;;;;;7.17;85.71;98678.44;8694218;32;20407;-74
2020/12/05 09:44:52;;;;;;;14.50;8.65;;;;;;;7.51;84.66;98705.75;8710803;32;20677;-75
2020/12/05 09:49:55;;;;;;;16.70;8.50;;;;;;;8.07;82.95;98726.88;8709340;32;20442;-74
2020/12/05 09:54:58;;;;;;;12.82;7.35;;;;;;;7.68;80.61;98738.94;8710769;32;20505;-74
2020/12/05 10:00:01;;;;;;;13.75;8.27;;;;;;;7.57;80.64;98708.78;8725035;32;20138;-74
2020/12/05 10:05:09;;;;;;;12.88;7.40;;;;;;;7.74;79.97;98696.78;8735091;32;20421;-72
2020/12/05 10:10:13;;;;;;;12.10;6.25;;;;;;;7.91;78.08;98724.63;8648890;33;20291;-74
2020/12/05 10:15:15;;;;;;;12.63;7.80;;;;;;;8.19;77.43;98717.84;8673111;32;20403;-74
2020/12/05 10:20:18;;;;;;;12.38;6.93;;;;;;;8.21;78.14;98721.25;8717329;32;20437;-75
2020/12/05 10:25:21;;;;;;;11.88;6.70;;;;;;;8.78;76.20;98721.81;8730354;32;20561;-74
2020/12/05 10:30:23;;;;;;;12.15;7.45;;;;;;;8.60;76.38;98732.19;8731753;32;20649;-74
2020/12/05 10:35:26;;;;;;;10.93;6.78;;;;;;;8.02;77.12;98727.25;8732633;32;20146;-75
2020/12/05 10:40:28;;;;;;;14.88;7.53;;;;;;;7.95;75.06;98744.69;8732244;32;20193;-75
2020/12/05 10:45:31;;;;;;;13.63;7.50;;;;;;;7.54;78.37;98746.25;8736376;32;20604;-73
2020/12/05 10:50:34;;;;;;;11.90;7.38;;;;;;;7.71;77.87;98736.91;8742989;32;20258;-75
2020/12/05 10:55:36;;;;;;;12.32;7.22;;;;;;;7.67;77.99;98735.44;8743639;32;20198;-73
2020/12/05 11:00:40;;;;;;;13.45;8.18;;;;;;;8.10;78.43;98708.00;8738031;32;20439;-75
2020/12/05 11:05:43;;;;;;;17.45;7.97;;;;;;;8.67;75.37;98733.38;8739130;32;20406;-74
2020/12/05 11:10:45;;;;;;;12.35;7.32;;;;;;;8.16;74.37;98752.69;8735840;32;20400;-74
2020/12/05 11:15:47;;;;;;;14.88;7.65;;;;;;;7.65;76.10;98757.81;8740764;32;20138;-74
2020/12/05 11:20:50;;;;;;;16.42;8.80;;;;;;;7.53;76.63;98786.22;8741960;32;20548;-74
2020/12/05 11:25:52;;;;;;;12.82;7.85;;;;;;;7.64;78.37;98783.53;8746387;32;20181;-75
2020/12/05 11:30:56;;;;;;;14.13;8.02;;;;;;;7.48;77.41;98783.06;8746318;32;20237;-74
2020/12/05 11:35:59;;;;;;;13.52;7.95;;;;;;;7.28;77.53;98793.47;8740733;32;20188;-74
2020/12/05 11:41:01;;;;;;;18.88;7.60;;;;;;;7.52;77.11;98803.13;8740268;32;20253;-74
2020/12/05 11:46:04;;;;;;;12.13;6.80;;;;;;;7.58;74.96;98805.28;8716194;32;20528;-74
2020/12/05 11:51:07;;;;;;;12.05;7.18;;;;;;;7.22;75.53;98817.84;8735598;32;20476;-75
2020/12/05 11:56:09;;;;;;;14.55;8.45;;;;;;;8.40;75.27;98823.53;8739244;32;20424;-74
2020/12/05 12:01:11;;;;;;;14.93;7.85;;;;;;;8.62;73.97;98833.22;8708736;32;20425;-76
2020/12/05 12:06:15;;;;;;;7.68;4.00;;;;;;;7.97;73.12;98842.94;8727285;32;20196;-74
2020/12/05 12:11:20;;;;;;;14.13;7.50;;;;;;;7.52;74.69;98848.31;8714085;32;20189;-74
2020/12/05 12:16:22;;;;;;;13.70;7.00;;;;;;;8.31;74.81;98850.84;8739100;32;20188;-74
2020/12/05 12:21:26;;;;;;;14.43;7.35;;;;;;;9.07;73.22;98865.78;8738555;32;20188;-74
2020/12/05 12:26:29;;;;;;;14.07;7.65;;;;;;;8.69;72.86;98871.66;8727399;32;20413;-74
2020/12/05 12:31:31;;;;;;;11.60;6.97;;;;;;;9.37;69.67;98873.97;8723137;32;20134;-73
2020/12/05 12:36:35;;;;;;;15.25;7.47;;;;;;;10.01;67.04;98863.03;8723187;32;20200;-74
2020/12/05 12:41:37;;;;;;;9.90;6.15;;;;;;;8.81;69.17;98877.81;8722242;32;20145;-75
2020/12/05 12:46:49;;;;;;;9.70;5.55;;;;;;;8.36;70.07;98873.44;8723836;32;20632;-75
2020/12/05 12:51:52;;;;;;;11.57;6.47;;;;;;;7.94;72.53;98880.44;8722574;32;20403;-75
2020/12/05 12:56:54;;;;;;;8.75;4.97;;;;;;;8.05;71.21;98880.41;8708014;32;20415;-74
2020/12/05 13:01:57;;;;;;;10.63;5.63;;;;;;;8.47;70.36;98867.25;8695333;32;20402;-74
2020/12/05 13:07:00;;;;;;;10.75;5.78;;;;;;;8.67;70.75;98876.28;8734791;32;20436;-75
2020/12/05 13:12:03;;;;;;;7.30;4.55;;;;;;;9.07;65.31;98880.94;8661029;33;21112;-75
2020/12/05 13:17:05;;;;;;;7.57;4.15;;;;;;;9.07;65.09;98876.44;8672883;33;21942;-73
2020/12/05 13:22:08;;;;;;;5.97;3.88;;;;;;;9.22;65.85;98884.97;8651586;33;20422;-75
2020/12/05 13:27:10;;;;;;;9.30;5.13;;;;;;;8.93;66.81;98891.91;8678608;33;20165;-75
2020/12/05 13:32:12;;;;;;;9.23;4.90;;;;;;;8.93;66.64;98871.44;8681562;33;20550;-75
2020/12/05 13:37:15;;;;;;;6.70;4.32;;;;;;;8.58;66.86;98877.03;8677825;33;20190;-75
2020/12/05 13:42:18;;;;;;;8.38;4.75;;;;;;;8.37;67.21;98877.81;8646944;33;20989;-75
2020/12/05 13:47:37;;;;;;;7.80;4.78;;;;;;;8.21;67.91;98903.97;8660529;32;20821;-75
2020/12/05 13:52:40;;;;;;;10.20;5.30;;;;;;;8.25;67.86;98905.38;8685868;32;21007;-75
2020/12/05 13:57:44;;;;;;;13.07;6.60;;;;;;;8.46;68.21;98922.31;8663007;32;20402;-75
2020/12/05 14:02:46;;;;;;;6.93;5.30;;;;;;;8.60;67.20;98928.34;8656023;32;20426;-75
2020/12/05 14:07:49;;;;;;;8.57;5.18;;;;;;;8.49;67.51;98925.72;8644313;33;20195;-75
2020/12/05 14:12:51;;;;;;;8.15;4.70;;;;;;;9.33;65.51;98943.53;8661274;33;20166;-75
2020/12/05 14:17:54;;;;;;;9.20;5.30;;;;;;;9.97;64.06;98955.81;8662362;33;20502;-75
2020/12/05 14:22:57;;;;;;;7.40;5.10;;;;;;;10.24;62.58;98955.22;8659697;33;20429;-75
2020/12/05 14:27:59;;;;;;;9.45;6.10;;;;;;;10.29;62.60;98952.19;8659295;33;20983;-75
2020/12/05 14:33:01;;;;;;;8.20;5.57;;;;;;;10.17;62.90;98963.91;8661536;33;20184;-75
2020/12/05 14:38:04;;;;;;;9.57;6.00;;;;;;;9.83;63.13;98982.84;8659845;33;20174;-74
2020/12/05 14:43:07;;;;;;;7.72;5.13;;;;;;;9.36;64.53;98966.41;8680321;32;20746;-75
2020/12/05 14:48:09;;;;;;;7.80;4.53;;;;;;;8.58;66.40;98967.53;8646753;33;20468;-75
2020/12/05 14:53:12;;;;;;;7.18;4.90;;;;;;;7.95;68.70;98984.03;8628675;33;20392;-74
2020/12/05 14:58:15;;;;;;;10.05;6.53;;;;;;;7.50;71.11;98994.56;8652246;33;20440;-74
2020/12/05 15:03:17;;;;;;;12.75;6.70;;;;;;;7.24;72.71;99006.31;8655465;33;20420;-76
2020/12/05 15:08:21;;;;;;;16.13;9.30;;;;;;;6.84;74.52;99006.63;8655038;33;20499;-75
2020/12/05 15:13:34;;;;;;;17.02;9.65;;;;;;;6.66;75.29;99011.47;8653087;33;20131;-73
2020/12/05 15:18:37;;;;;;;20.10;10.20;;;;;;;6.47;75.63;99017.25;8655820;33;20440;-74
2020/12/05 15:23:40;;;;;;;16.23;10.75;;;;;;;6.26;76.25;99019.66;8648554;33;20414;-74
2020/12/05 15:28:43;;;;;;;19.55;10.32;;;;;;;6.05;76.68;99024.63;8647119;33;20434;-74
2020/12/05 15:33:45;;;;;;;22.17;11.45;;;;;;;5.91;77.00;99019.44;8625984;33;20414;-74
2020/12/05 15:38:49;;;;;;;18.98;11.10;;;;;;;5.75;77.25;99014.31;8653837;33;20952;-73
2020/12/05 15:43:51;;;;;;;20.75;11.52;;;;;;;5.55;77.83;99027.13;8655411;33;20150;-74
2020/12/05 15:48:54;;;;;;;18.83;11.02;;;;;;;5.44;77.98;99034.13;8590980;33;22275;-74
2020/12/05 15:53:57;;;;;;;23.67;13.40;;;;;;;5.35;78.38;99030.28;8566179;33;27997;-76
2020/12/05 15:59:00;;;;;;;21.55;12.55;;;;;;;5.26;78.72;99039.69;8574014;33;20451;-75
2020/12/05 16:04:02;;;;;;;26.85;15.05;;;;;;;5.16;78.50;99029.81;8653109;33;20956;-75
2020/12/05 16:09:05;;;;;;;25.88;13.68;;;;;;;5.08;78.70;99046.22;8633243;33;20296;-72
2020/12/05 16:14:09;;;;;;;28.13;14.55;;;;;;;4.95;78.67;99042.66;8632514;33;20518;-74
2020/12/05 16:19:13;;;;;;;29.30;15.40;;;;;;;4.88;78.89;99058.06;8658384;33;20463;-75
2020/12/05 16:24:16;;;;;;;30.77;14.37;;;;;;;4.78;79.16;99057.81;8657401;33;20922;-74
2020/12/05 16:29:19;;;;;;;28.60;13.73;;;;;;;4.67;79.31;99061.16;8656487;33;20409;-73
2020/12/05 16:34:24;;;;;;;24.90;13.30;;;;;;;4.59;79.28;99062.59;8657404;33;20192;-75
2020/12/05 16:39:28;;;;;;;30.27;13.60;;;;;;;4.51;79.51;99064.88;8652941;33;20479;-74
2020/12/05 16:44:31;;;;;;;24.60;12.37;;;;;;;4.40;79.43;99076.97;8647390;33;20458;-76
2020/12/05 16:49:33;;;;;;;22.93;12.93;;;;;;;4.47;79.06;99077.44;8643790;33;20425;-76
2020/12/05 16:54:36;;;;;;;27.73;11.83;;;;;;;4.47;79.27;99077.44;8640170;33;20154;-73
2020/12/05 16:59:38;;;;;;;24.20;12.67;;;;;;;4.47;79.02;99085.38;8632950;33;20151;-75
2020/12/05 17:04:41;;;;;;;25.27;12.33;;;;;;;4.42;79.34;99093.59;8641734;33;20294;-76
2020/12/05 17:09:45;;;;;;;22.73;12.03;;;;;;;4.36;78.63;99088.69;8644861;33;20645;-76
2020/12/05 17:14:48;;;;;;;26.27;11.70;;;;;;;4.46;78.99;99100.38;8641249;33;20457;-76
2020/12/05 17:19:50;;;;;;;27.40;12.77;;;;;;;4.43;78.97;99108.50;8643273;33;20421;-76
2020/12/05 17:24:53;;;;;;;28.60;12.60;;;;;;;4.46;78.93;99113.59;8643713;33;20304;-75
2020/12/05 17:29:56;;;;;;;28.30;12.50;;;;;;;4.45;78.74;99116.34;8619987;33;20195;-74
2020/12/05 17:34:58;;;;;;;22.10;12.43;;;;;;;4.46;78.42;99121.53;8644839;33;20420;-76
2020/12/05 17:40:01;;;;;;;31.03;16.23;;;;;;;4.46;78.78;99120.69;8648638;33;20467;-76
2020/12/05 17:45:05;;;;;;;32.07;17.40;;;;;;;4.48;78.65;99123.25;8659604;33;20149;-75
2020/12/05 17:50:07;;;;;;;25.37;13.90;;;;;;;4.44;78.52;99139.31;8660906;33;21214;-76
2020/12/05 17:55:10;;;;;;;35.13;17.73;;;;;;;4.44;78.66;99123.44;8637877;33;20563;-75
2020/12/05 18:00:12;;;;;;;27.00;13.47;;;;;;;4.46;78.13;99141.84;8674877;33;21619;-76
2020/12/05 18:05:14;;;;;;;43.07;18.97;;;;;;;4.50;78.42;99139.84;8670819;33;21730;-76
2020/12/05 18:10:18;;;;;;;63.08;27.63;;;;;;;4.51;78.32;99153.00;8664276;33;20405;-76
2020/12/05 18:15:20;;;;;;;75.30;35.33;;;;;;;4.48;78.44;99155.00;8663751;33;20196;-74
2020/12/05 18:20:27;;;;;;;53.83;25.20;;;;;;;4.48;78.25;99160.28;8662209;33;21108;-74
2020/12/05 18:25:31;;;;;;;37.58;21.10;;;;;;;4.41;78.01;99150.06;8659602;33;20523;-75
2020/12/05 18:30:33;;;;;;;33.27;16.23;;;;;;;4.38;77.99;99158.19;8662800;33;20430;-76
2020/12/05 18:35:35;;;;;;;24.53;13.93;;;;;;;4.41;78.41;99157.97;8664842;33;20194;-75
2020/12/05 18:40:38;;;;;;;31.20;15.18;;;;;;;4.46;78.02;99171.78;8661256;33;20340;-73
2020/12/05 18:45:42;;;;;;;26.08;13.07;;;;;;;4.51;77.92;99170.66;8665508;33;20161;-75
2020/12/05 18:50:44;;;;;;;34.70;16.48;;;;;;;4.51;77.54;99176.81;8658226;33;20594;-75
2020/12/05 18:55:47;;;;;;;33.17;16.88;;;;;;;4.50;77.85;99179.53;8657402;33;20647;-73
2020/12/05 19:00:49;;;;;;;33.13;17.10;;;;;;;4.52;77.83;99182.94;8631885;33;20178;-75
2020/12/05 19:05:52;;;;;;;28.63;14.20;;;;;;;4.54;77.17;99176.59;8660213;33;20507;-74
2020/12/05 19:10:57;;;;;;;28.70;14.50;;;;;;;4.52;77.37;99157.31;8662669;33;20501;-74
2020/12/05 19:15:59;;;;;;;26.40;14.60;;;;;;;4.53;77.58;99150.28;8668549;33;20414;-76
2020/12/05 19:21:01;;;;;;;29.03;14.43;;;;;;;4.56;77.61;99161.50;8676809;33;20247;-75
2020/12/05 19:26:05;;;;;;;29.10;14.87;;;;;;;4.61;77.57;99164.72;8677321;33;20493;-74
2020/12/05 19:31:07;;;;;;;29.40;13.93;;;;;;;4.65;77.42;99183.88;8677197;33;20471;-74
2020/12/05 19:36:09;;;;;;;30.52;14.52;;;;;;;4.65;77.02;99184.72;8682007;33;21696;-73
2020/12/05 19:41:12;;;;;;;36.30;18.55;;;;;;;4.61;77.17;99190.31;8681868;33;20534;-74
2020/12/05 19:46:14;;;;;;;28.92;14.73;;;;;;;4.50;77.19;99204.22;8681985;33;20182;-74
2020/12/05 19:51:17;;;;;;;28.00;14.60;;;;;;;4.27;77.52;99216.16;8682219;33;20433;-73
2020/12/05 19:56:20;;;;;;;31.00;16.23;;;;;;;4.28;78.06;99209.94;8686491;33;20190;-73
2020/12/05 20:01:22;;;;;;;36.17;19.97;;;;;;;4.30;77.99;99213.31;8687587;32;20162;-73
2020/12/05 20:06:25;;;;;;;40.07;20.43;;;;;;;4.29;78.12;99208.13;8689911;33;20476;-74
2020/12/05 20:11:28;;;;;;;39.55;20.73;;;;;;;4.25;78.37;99210.13;8687356;33;20406;-73
2020/12/05 20:16:31;;;;;;;52.43;26.30;;;;;;;4.07;78.04;99219.97;8686410;33;20179;-74
2020/12/05 20:21:33;;;;;;;41.60;21.48;;;;;;;4.06;78.71;99233.25;8717813;32;20193;-75
2020/12/05 20:26:37;;;;;;;36.73;19.27;;;;;;;4.12;78.91;99238.22;8722396;32;20447;-76
2020/12/05 20:31:39;;;;;;;32.63;16.20;;;;;;;4.18;79.30;99236.06;8720466;32;20416;-74
2020/12/05 20:36:41;;;;;;;30.43;15.73;;;;;;;4.22;79.23;99229.66;8721315;32;22027;-74
2020/12/05 20:41:44;;;;;;;31.60;15.40;;;;;;;4.25;79.32;99215.41;8657056;32;20268;-76
2020/12/05 20:46:50;;;;;;;32.03;15.20;;;;;;;4.32;79.50;99218.53;8681878;32;20146;-75
2020/12/05 20:51:53;;;;;;;31.50;14.30;;;;;;;4.37;79.21;99214.66;8681086;32;20233;-76
2020/12/05 20:56:56;;;;;;;33.60;14.93;;;;;;;4.40;79.25;99216.28;8664607;32;20632;-75
2020/12/05 21:01:59;;;;;;;28.07;14.20;;;;;;;4.43;79.33;99227.50;8669659;32;20429;-75
2020/12/05 21:07:01;;;;;;;29.53;14.40;;;;;;;4.43;79.41;99218.72;8670371;32;20403;-75
2020/12/05 21:12:08;;;;;;;32.95;13.63;;;;;;;4.46;79.61;99232.59;8678247;32;20154;-75
2020/12/05 21:17:11;;;;;;;32.13;13.27;;;;;;;4.48;79.56;99227.25;8677111;32;20424;-75
2020/12/05 21:22:13;;;;;;;27.53;13.50;;;;;;;4.44;79.60;99204.56;8674739;32;20166;-74
2020/12/05 21:27:18;;;;;;;32.67;15.48;;;;;;;4.43;79.68;99224.88;8679430;32;20464;-74
2020/12/05 21:32:20;;;;;;;28.02;14.40;;;;;;;4.37;79.70;99227.03;8676621;32;20189;-74
2020/12/05 21:37:24;;;;;;;28.27;14.37;;;;;;;4.37;79.60;99219.94;8674020;33;20458;-75
2020/12/05 21:42:27;;;;;;;30.95;15.52;;;;;;;4.35;79.63;99229.75;8673757;33;20437;-75
2020/12/05 21:47:29;;;;;;;30.13;14.57;;;;;;;4.41;79.98;99226.75;8670337;33;21006;-74
2020/12/05 21:52:31;;;;;;;49.47;21.53;;;;;;;4.45;79.95;99230.06;8658827;33;20578;-75
2020/12/05 21:57:34;;;;;;;48.17;21.20;;;;;;;4.51;79.84;99236.78;8659897;33;20182;-74
2020/12/05 22:02:36;;;;;;;46.10;21.02;;;;;;;4.51;79.52;99221.75;8634718;32;20243;-75
2020/12/05 22:07:39;;;;;;;44.53;21.27;;;;;;;4.49;79.46;99223.63;8662227;33;20146;-74
2020/12/05 22:12:43;;;;;;;46.83;20.30;;;;;;;4.49;79.80;99234.22;8662305;33;21183;-74
2020/12/05 22:17:45;;;;;;;32.25;17.30;;;;;;;4.50;79.78;99233.28;8672300;32;20478;-75
2020/12/05 22:22:47;;;;;;;27.95;13.82;;;;;;;4.53;79.44;99235.75;8732056;32;20209;-75
2020/12/05 22:27:50;;;;;;;33.27;15.43;;;;;;;4.57;79.49;99247.84;8708633;32;20439;-74
2020/12/05 22:32:53;;;;;;;27.88;13.50;;;;;;;4.63;79.74;99247.47;8733752;32;21413;-74
2020/12/05 22:37:56;;;;;;;30.25;14.38;;;;;;;4.64;79.11;99262.41;8720149;32;20899;-75
2020/12/05 22:42:59;;;;;;;27.97;13.40;;;;;;;4.65;79.11;99234.16;8698903;32;20141;-75
2020/12/05 22:48:02;;;;;;;25.73;12.60;;;;;;;4.63;79.01;99239.53;8726957;32;20528;-75
2020/12/05 22:53:04;;;;;;;25.65;12.93;;;;;;;4.63;79.16;99239.53;8722934;32;20225;-75
2020/12/05 22:58:07;;;;;;;26.40;13.83;;;;;;;4.64;79.18;99264.22;8695871;32;20326;-75
2020/12/05 23:03:10;;;;;;;23.27;12.05;;;;;;;4.48;78.72;99266.06;8665429;33;20467;-75
2020/12/05 23:08:13;;;;;;;24.88;13.55;;;;;;;4.33;78.89;99278.38;8682193;32;20420;-75
2020/12/05 23:13:21;;;;;;;31.40;15.60;;;;;;;4.35;79.39;99268.59;8683251;32;20413;-74
2020/12/05 23:18:23;;;;;;;30.57;14.40;;;;;;;4.43;79.47;99237.25;8668957;33;21943;-74
2020/12/05 23:23:25;;;;;;;45.43;18.07;;;;;;;4.43;79.68;99182.56;8678354;33;20719;-74
2020/12/05 23:28:29;;;;;;;112.68;38.00;;;;;;;4.43;79.53;99123.53;8677512;33;20178;-74
2020/12/05 23:38:52;;;;;;;39.95;16.50;;;;;;;4.07;79.82;99135.41;8663467;33;20948;-74
2020/12/05 23:43:55;;;;;;;34.60;16.10;;;;;;;3.80;80.43;99129.97;8679930;33;20679;-75
2020/12/05 23:48:57;;;;;;;79.43;29.63;;;;;;;3.68;80.49;99123.63;8682031;33;20322;-73